createdAt,value
2022-12-01T00:01:10.118Z,5.10
2022-12-01T00:03:37.179Z,5.20
2022-12-01T00:06:07.027Z,5.20
2022-12-01T00:08:34.459Z,5.20
2022-12-01T00:11:09.916Z,5.10
2022-12-01T00:13:36.927Z,5.20
2022-12-01T00:16:14.499Z,5.20
2022-12-01T00:18:41.683Z,5.20
2022-12-01T00:21:20.264Z,5.20
2022-12-01T00:23:49.378Z,5.10
2022-12-01T00:26:17.354Z,5.10
2022-12-01T00:28:44.297Z,5.20
2022-12-01T00:31:12.735Z,5.20
2022-12-01T00:33:39.615Z,5.20
2022-12-01T00:36:07.539Z,5.20
2022-12-01T00:38:34.879Z,5.20
2022-12-01T00:41:02.183Z,5.10
2022-12-01T00:43:28.858Z,5.10
2022-12-01T00:45:56.498Z,5.20
2022-12-01T00:48:23.577Z,5.20
2022-12-01T00:50:54.945Z,5.20
2022-12-01T00:53:21.693Z,5.20
2022-12-01T00:55:48.352Z,5.20
2022-12-01T00:58:15.189Z,5.20
2022-12-01T01:00:43.006Z,5.20
2022-12-01T01:03:10.473Z,5.20
2022-12-01T01:05:39.371Z,5.20
2022-12-01T01:08:10.921Z,5.20
2022-12-01T01:10:42.329Z,5.20
2022-12-01T01:13:09.382Z,5.20
2022-12-01T01:15:36.431Z,5.20
2022-12-01T01:18:03.741Z,5.20
2022-12-01T01:20:30.522Z,5.20
2022-12-01T01:22:57.166Z,5.20
2022-12-01T01:25:24.494Z,5.20
2022-12-01T01:27:51.206Z,5.20
2022-12-01T01:30:18.232Z,5.20
2022-12-01T01:32:44.933Z,5.20
2022-12-01T01:35:11.684Z,5.20
2022-12-01T01:37:38.457Z,5.20
2022-12-01T01:40:06.003Z,5.20
2022-12-01T01:42:32.643Z,5.20
2022-12-01T01:44:59.591Z,5.30
2022-12-01T01:47:34.996Z,5.30
2022-12-01T01:50:06.560Z,5.30
2022-12-01T01:52:46.060Z,5.30
2022-12-01T01:55:13.604Z,5.30
2022-12-01T01:57:40.653Z,5.30
2022-12-01T02:00:14.049Z,5.30
2022-12-01T02:02:45.508Z,5.30
2022-12-01T02:05:19.478Z,5.30
2022-12-01T02:07:47.523Z,5.30
2022-12-01T02:10:22.378Z,5.40
2022-12-01T02:13:00.785Z,5.40
2022-12-01T02:15:51.627Z,5.40
2022-12-01T02:18:30.604Z,5.40
2022-12-01T02:21:10.425Z,5.40
2022-12-01T02:24:13.398Z,5.40
2022-12-01T02:27:04.889Z,5.40
2022-12-01T02:29:54.692Z,5.40
2022-12-01T02:32:42.472Z,5.40
2022-12-01T02:35:32.962Z,5.40
2022-12-01T02:38:23.910Z,5.50
2022-12-01T02:41:11.558Z,5.40
2022-12-01T02:43:50.810Z,5.40
2022-12-01T02:46:47.480Z,5.40
2022-12-01T02:49:18.441Z,5.40
2022-12-01T02:51:45.727Z,5.40
2022-12-01T02:54:14.572Z,5.40
2022-12-01T02:56:44.718Z,5.50
2022-12-01T02:59:13.200Z,5.50
2022-12-01T03:01:46.335Z,5.50
2022-12-01T03:04:35.826Z,5.50
2022-12-01T03:07:10.899Z,5.50
2022-12-01T03:10:15.270Z,5.40
2022-12-01T03:12:59.313Z,5.50
2022-12-01T03:15:37.883Z,5.50
2022-12-01T03:18:23.212Z,5.40
2022-12-01T03:20:57.420Z,5.40
2022-12-01T03:23:28.649Z,5.50
2022-12-01T03:25:59.079Z,5.50
2022-12-01T03:28:33.487Z,5.50
2022-12-01T03:31:03.176Z,5.50
2022-12-01T03:33:35.428Z,5.40
2022-12-01T03:36:24.732Z,5.50
2022-12-01T03:39:00.186Z,5.50
2022-12-01T03:41:35.299Z,5.50
2022-12-01T03:44:19.242Z,5.50
2022-12-01T03:46:46.158Z,5.50
2022-12-01T03:49:15.020Z,5.50
2022-12-01T03:52:12.138Z,5.50
2022-12-01T03:55:09.009Z,5.50
2022-12-01T03:57:46.140Z,5.50
2022-12-01T04:00:15.004Z,5.40
2022-12-01T04:02:41.909Z,5.50
2022-12-01T04:05:09.303Z,5.40
2022-12-01T04:07:37.328Z,5.50
2022-12-01T04:10:05.316Z,5.50
2022-12-01T04:12:35.044Z,5.50
2022-12-01T04:15:10.159Z,5.50
2022-12-01T04:17:37.345Z,5.40
2022-12-01T04:20:06.479Z,5.50
2022-12-01T04:22:33.900Z,5.40
2022-12-01T04:25:00.531Z,5.40
2022-12-01T04:27:27.321Z,5.40
2022-12-01T04:29:53.940Z,5.40
2022-12-01T04:32:20.518Z,5.40
2022-12-01T04:34:47.248Z,5.40
2022-12-01T04:37:13.879Z,5.40
2022-12-01T04:39:42.112Z,5.40
2022-12-01T04:42:09.682Z,5.40
2022-12-01T04:44:36.997Z,5.40
2022-12-01T04:47:05.287Z,5.30
2022-12-01T04:49:32.675Z,5.40
2022-12-01T04:51:59.454Z,5.40
2022-12-01T04:54:26.184Z,5.40
2022-12-01T04:56:52.865Z,5.40
2022-12-01T04:59:19.664Z,5.40
2022-12-01T05:01:48.139Z,5.40
2022-12-01T05:04:15.660Z,5.40
2022-12-01T05:06:42.516Z,5.40
2022-12-01T05:09:17.076Z,5.40
2022-12-01T05:11:44.363Z,5.40
2022-12-01T05:14:11.005Z,5.40
2022-12-01T05:16:37.923Z,5.40
2022-12-01T05:19:24.761Z,5.40
2022-12-01T05:21:52.066Z,5.40
2022-12-01T05:24:19.900Z,5.30
2022-12-01T05:26:46.770Z,5.30
2022-12-01T05:29:14.190Z,5.30
2022-12-01T05:31:41.184Z,5.30
2022-12-01T05:34:08.445Z,5.30
2022-12-01T05:36:35.205Z,5.20
2022-12-01T05:39:01.990Z,5.20
2022-12-01T05:41:28.632Z,5.20
2022-12-01T05:43:55.392Z,5.20
2022-12-01T05:46:22.221Z,5.20
2022-12-01T05:48:48.876Z,5.20
2022-12-01T05:51:17.690Z,5.10
2022-12-01T05:53:45.059Z,5.10
2022-12-01T05:56:12.155Z,5.00
2022-12-01T05:58:38.910Z,5.00
2022-12-01T06:01:06.108Z,5.00
2022-12-01T06:03:32.764Z,5.00
2022-12-01T06:05:59.398Z,5.10
2022-12-01T06:08:26.168Z,5.00
2022-12-01T06:10:52.767Z,5.10
2022-12-01T06:13:19.461Z,5.10
2022-12-01T06:15:46.103Z,5.10
2022-12-01T06:18:12.760Z,5.10
2022-12-01T06:20:39.444Z,5.10
2022-12-01T06:23:06.130Z,5.10
2022-12-01T06:25:32.742Z,5.10
2022-12-01T06:27:59.732Z,5.00
2022-12-01T06:30:26.701Z,5.00
2022-12-01T06:32:53.513Z,4.90
2022-12-01T06:35:20.636Z,4.90
2022-12-01T06:37:47.463Z,4.90
2022-12-01T06:40:14.382Z,4.80
2022-12-01T06:42:41.235Z,4.70
2022-12-01T06:45:08.373Z,4.70
2022-12-01T06:47:35.082Z,4.60
2022-12-01T06:50:02.407Z,4.60
2022-12-01T06:52:29.210Z,4.50
2022-12-01T06:54:55.818Z,4.50
2022-12-01T06:57:22.759Z,4.50
2022-12-01T06:59:49.664Z,4.40
2022-12-01T07:02:17.176Z,4.40
2022-12-01T07:04:43.944Z,4.30
2022-12-01T07:07:12.007Z,4.30
2022-12-01T07:09:39.191Z,4.30
2022-12-01T07:12:06.438Z,4.30
2022-12-01T07:14:33.152Z,4.20
2022-12-01T07:16:59.945Z,4.20
2022-12-01T07:19:26.752Z,4.20
2022-12-01T07:21:53.436Z,4.10
2022-12-01T07:24:20.372Z,4.00
2022-12-01T07:26:48.145Z,3.90
2022-12-01T07:29:15.269Z,3.90
2022-12-01T07:31:41.906Z,3.90
2022-12-01T07:34:11.536Z,3.80
2022-12-01T07:36:38.193Z,3.80
2022-12-01T07:39:07.535Z,3.70
2022-12-01T07:41:35.209Z,3.70
2022-12-01T07:44:02.255Z,3.70
2022-12-01T07:46:29.184Z,3.70
2022-12-01T07:48:57.004Z,3.60
2022-12-01T07:51:25.229Z,3.60
2022-12-01T07:53:53.772Z,3.70
2022-12-01T07:56:21.343Z,3.60
2022-12-01T07:58:48.154Z,3.60
2022-12-01T08:01:17.425Z,3.50
2022-12-01T08:03:44.834Z,3.50
2022-12-01T08:06:12.247Z,3.50
2022-12-01T08:08:40.769Z,3.50
2022-12-01T08:11:15.276Z,3.50
2022-12-01T08:13:42.736Z,3.50
2022-12-01T08:16:16.357Z,3.50
2022-12-01T08:18:43.739Z,3.50
2022-12-01T08:21:14.112Z,3.50
2022-12-01T08:23:42.092Z,3.50
2022-12-01T08:26:12.974Z,3.50
2022-12-01T08:28:39.890Z,3.50
2022-12-01T08:31:29.465Z,3.60
2022-12-01T08:33:56.687Z,3.60
2022-12-01T08:36:24.580Z,3.70
2022-12-01T08:38:54.749Z,3.80
2022-12-01T08:41:21.911Z,3.80
2022-12-01T08:44:03.989Z,3.90
2022-12-01T08:46:35.673Z,3.90
2022-12-01T08:49:04.834Z,4.00
2022-12-01T08:51:32.092Z,4.10
2022-12-01T08:53:59.873Z,4.20
2022-12-01T08:56:36.167Z,4.30
2022-12-01T08:59:03.626Z,4.30
2022-12-01T09:01:30.476Z,4.40
2022-12-01T09:04:08.842Z,4.40
2022-12-01T09:06:40.907Z,4.50
2022-12-01T09:09:09.718Z,4.50
2022-12-01T09:11:36.912Z,4.50
2022-12-01T09:14:03.775Z,4.60
2022-12-01T09:16:30.756Z,4.60
2022-12-01T09:18:57.591Z,4.70
2022-12-01T09:21:30.623Z,4.70
2022-12-01T09:23:57.972Z,4.70
2022-12-01T09:26:25.303Z,4.70
2022-12-01T09:28:57.199Z,4.80
2022-12-01T09:31:24.665Z,4.80
2022-12-01T09:34:02.358Z,4.90
2022-12-01T09:36:31.385Z,4.90
2022-12-01T09:38:59.011Z,4.90
2022-12-01T09:41:43.851Z,4.90
2022-12-01T09:44:14.049Z,4.90
2022-12-01T09:46:58.530Z,4.90
2022-12-01T09:49:55.356Z,4.90
2022-12-01T09:52:25.131Z,4.90
2022-12-01T09:54:54.546Z,4.90
2022-12-01T09:57:24.181Z,5.00
2022-12-01T09:59:52.104Z,5.10
2022-12-01T10:02:24.927Z,5.10
2022-12-01T10:04:55.861Z,5.20
2022-12-01T10:07:24.630Z,5.20
2022-12-01T10:10:42.393Z,5.20
2022-12-01T10:13:29.277Z,5.30
2022-12-01T10:16:10.798Z,5.40
2022-12-01T10:19:05.978Z,5.40
2022-12-01T10:21:38.360Z,5.50
2022-12-01T10:24:29.692Z,5.60
2022-12-01T10:27:23.258Z,5.60
2022-12-01T10:30:06.981Z,5.70
2022-12-01T10:32:55.228Z,5.70
2022-12-01T10:35:37.559Z,5.70
2022-12-01T10:38:12.528Z,5.80
2022-12-01T10:40:40.601Z,5.80
2022-12-01T10:43:10.621Z,5.80
2022-12-01T10:45:43.952Z,5.90
2022-12-01T10:48:21.014Z,5.90
2022-12-01T10:50:51.445Z,5.80
2022-12-01T10:53:24.263Z,6.00
2022-12-01T10:56:03.837Z,6.10
2022-12-01T10:58:42.394Z,6.20
2022-12-01T11:01:20.467Z,6.30
2022-12-01T11:04:13.094Z,6.30
2022-12-01T11:06:39.867Z,6.20
2022-12-01T11:09:26.373Z,6.10
2022-12-01T11:12:04.621Z,6.00
2022-12-01T11:14:45.850Z,6.00
2022-12-01T11:17:22.426Z,6.00
2022-12-01T11:19:49.534Z,6.00
2022-12-01T11:22:29.047Z,6.00
2022-12-01T11:24:57.196Z,6.00
2022-12-01T11:27:27.302Z,6.10
2022-12-01T11:30:02.765Z,6.20
2022-12-01T11:32:32.604Z,6.40
2022-12-01T11:35:21.238Z,6.60
2022-12-01T11:38:20.980Z,6.70
2022-12-01T11:40:51.220Z,6.80
2022-12-01T11:43:33.066Z,6.90
2022-12-01T11:46:03.796Z,6.90
2022-12-01T11:48:34.462Z,7.00
2022-12-01T11:51:07.615Z,7.00
2022-12-01T11:53:36.736Z,7.10
2022-12-01T11:56:17.746Z,7.20
2022-12-01T11:58:46.423Z,7.30
2022-12-01T12:01:50.594Z,7.40
2022-12-01T12:04:29.402Z,7.50
2022-12-01T12:07:10.067Z,7.30
2022-12-01T12:09:45.844Z,7.40
2022-12-01T12:12:21.425Z,7.60
2022-12-01T12:15:13.886Z,7.70
2022-12-01T12:17:40.672Z,7.90
2022-12-01T12:20:18.552Z,7.70
2022-12-01T12:23:08.682Z,7.80
2022-12-01T12:25:54.502Z,7.90
2022-12-01T12:28:52.227Z,8.10
2022-12-01T12:31:31.010Z,8.30
2022-12-01T12:34:23.785Z,8.40
2022-12-01T12:37:13.058Z,8.30
2022-12-01T12:40:08.167Z,8.40
2022-12-01T12:42:43.833Z,8.70
2022-12-01T12:45:19.430Z,8.80
2022-12-01T12:47:48.884Z,8.80
2022-12-01T12:50:32.093Z,8.80
2022-12-01T12:53:04.154Z,9.00
2022-12-01T12:55:38.541Z,9.10
2022-12-01T12:58:11.254Z,9.30
2022-12-01T13:00:49.509Z,9.60
2022-12-01T13:03:41.389Z,9.70
2022-12-01T13:06:17.754Z,9.80
2022-12-01T13:08:52.992Z,9.90
2022-12-01T13:11:36.001Z,9.90
2022-12-01T13:14:17.068Z,9.70
2022-12-01T13:16:47.753Z,9.70
2022-12-01T13:19:20.599Z,9.70
2022-12-01T13:21:50.103Z,9.70
2022-12-01T13:24:23.285Z,9.70
2022-12-01T13:26:58.414Z,9.70
2022-12-01T13:29:26.959Z,9.80
2022-12-01T13:31:55.095Z,9.50
2022-12-01T13:34:36.693Z,9.60
2022-12-01T13:37:03.498Z,9.80
2022-12-01T13:39:35.675Z,10.00
2022-12-01T13:42:08.718Z,10.20
2022-12-01T13:44:44.772Z,10.20
2022-12-01T13:47:11.371Z,10.20
2022-12-01T13:49:50.332Z,10.10
2022-12-01T13:52:23.425Z,10.10
2022-12-01T13:55:08.127Z,9.90
2022-12-01T13:57:58.101Z,10.10
2022-12-01T14:00:32.115Z,9.90
2022-12-01T14:03:19.390Z,10.00
2022-12-01T14:06:08.845Z,10.10
2022-12-01T14:08:47.989Z,10.10
2022-12-01T14:11:20.763Z,10.10
2022-12-01T14:13:53.615Z,10.00
2022-12-01T14:16:20.911Z,9.90
2022-12-01T14:18:54.604Z,9.60
2022-12-01T14:21:45.530Z,9.40
2022-12-01T14:24:36.630Z,9.40
2022-12-01T14:27:05.583Z,9.50
2022-12-01T14:29:33.581Z,9.70
2022-12-01T14:32:00.348Z,9.40
2022-12-01T14:34:31.451Z,9.40
2022-12-01T14:37:06.623Z,9.40
2022-12-01T14:39:37.083Z,9.20
2022-12-01T14:42:54.426Z,9.00
2022-12-01T14:45:31.948Z,8.90
2022-12-01T14:48:04.817Z,8.80
2022-12-01T14:50:46.190Z,8.70
2022-12-01T14:53:30.938Z,8.50
2022-12-01T14:56:01.685Z,8.50
2022-12-01T14:58:30.786Z,8.30
2022-12-01T15:01:08.476Z,8.20
2022-12-01T15:03:43.362Z,8.20
2022-12-01T15:06:16.074Z,8.10
2022-12-01T15:08:53.189Z,8.00
2022-12-01T15:11:30.317Z,8.00
2022-12-01T15:13:58.279Z,7.90
2022-12-01T15:16:32.307Z,7.80
2022-12-01T15:18:59.140Z,7.70
2022-12-01T15:21:29.208Z,7.70
2022-12-01T15:24:05.242Z,7.60
2022-12-01T15:26:46.487Z,7.50
2022-12-01T15:29:20.994Z,7.40
2022-12-01T15:31:50.931Z,7.30
2022-12-01T15:34:40.027Z,7.20
2022-12-01T15:37:13.792Z,7.20
2022-12-01T15:39:49.847Z,7.10
2022-12-01T15:42:28.500Z,7.00
2022-12-01T15:45:16.031Z,6.90
2022-12-01T15:47:45.970Z,6.70
2022-12-01T15:50:33.623Z,6.60
2022-12-01T15:53:06.004Z,6.40
2022-12-01T15:55:36.378Z,6.30
2022-12-01T15:58:07.809Z,6.20
2022-12-01T16:00:35.142Z,6.10
2022-12-01T16:03:02.435Z,6.20
2022-12-01T16:05:34.716Z,6.10
2022-12-01T16:08:19.409Z,6.00
2022-12-01T16:10:46.543Z,5.90
2022-12-01T16:13:35.373Z,5.90
2022-12-01T16:16:33.392Z,5.80
2022-12-01T16:19:05.533Z,5.70
2022-12-01T16:21:42.134Z,5.70
2022-12-01T16:24:37.132Z,5.60
2022-12-01T16:27:22.075Z,5.50
2022-12-01T16:29:51.929Z,5.40
2022-12-01T16:32:23.705Z,5.40
2022-12-01T16:34:52.574Z,5.30
2022-12-01T16:37:21.501Z,5.30
2022-12-01T16:39:48.781Z,5.20
2022-12-01T16:42:17.622Z,5.20
2022-12-01T16:44:45.571Z,5.20
2022-12-01T16:47:14.758Z,5.20
2022-12-01T16:49:41.691Z,5.10
2022-12-01T16:52:36.564Z,5.00
2022-12-01T16:54:55.314Z,5.00
2022-12-01T16:57:21.878Z,5.00
2022-12-01T16:59:48.528Z,4.90
2022-12-01T17:02:15.407Z,4.80
2022-12-01T17:04:42.097Z,4.80
2022-12-01T17:07:08.736Z,4.90
2022-12-01T17:09:35.926Z,4.80
2022-12-01T17:12:02.551Z,4.80
2022-12-01T17:14:29.637Z,4.80
2022-12-01T17:16:58.696Z,4.70
2022-12-01T17:19:25.363Z,4.70
2022-12-01T17:21:52.931Z,4.70
2022-12-01T17:24:19.580Z,4.70
2022-12-01T17:26:46.244Z,4.70
2022-12-01T17:29:12.841Z,4.60
2022-12-01T17:31:39.663Z,4.60
2022-12-01T17:34:06.256Z,4.50
2022-12-01T17:36:32.892Z,4.50
2022-12-01T17:38:59.732Z,4.50
2022-12-01T17:41:32.198Z,4.40
2022-12-01T17:44:01.369Z,4.40
2022-12-01T17:46:28.064Z,4.40
2022-12-01T17:48:54.846Z,4.30
2022-12-01T17:51:21.937Z,4.30
2022-12-01T17:53:48.723Z,4.30
2022-12-01T17:56:17.317Z,4.30
2022-12-01T17:58:44.219Z,4.30
2022-12-01T18:01:17.892Z,4.30
2022-12-01T18:03:45.074Z,4.20
2022-12-01T18:06:12.526Z,4.20
2022-12-01T18:08:39.886Z,4.20
2022-12-01T18:11:08.628Z,4.20
2022-12-01T18:13:40.055Z,4.10
2022-12-01T18:16:08.881Z,4.10
2022-12-01T18:18:37.533Z,4.10
2022-12-01T18:21:09.290Z,4.10
2022-12-01T18:23:36.453Z,4.10
2022-12-01T18:26:15.939Z,4.00
2022-12-01T18:28:43.477Z,4.00
2022-12-01T18:31:14.343Z,4.00
2022-12-01T18:33:43.315Z,3.90
2022-12-01T18:36:13.577Z,3.90
2022-12-01T18:38:40.888Z,3.90
2022-12-01T18:41:08.221Z,3.90
2022-12-01T18:43:36.299Z,3.80
2022-12-01T18:46:04.889Z,3.80
2022-12-01T18:48:31.911Z,3.80
2022-12-01T18:51:06.818Z,3.80
2022-12-01T18:53:34.625Z,3.80
2022-12-01T18:56:03.346Z,3.70
2022-12-01T18:58:30.975Z,3.80
2022-12-01T19:00:58.207Z,3.70
2022-12-01T19:03:25.236Z,3.70
2022-12-01T19:05:52.050Z,3.70
2022-12-01T19:08:18.944Z,3.80
2022-12-01T19:10:45.617Z,3.80
2022-12-01T19:13:12.419Z,3.80
2022-12-01T19:15:39.186Z,3.80
2022-12-01T19:18:05.869Z,3.80
2022-12-01T19:20:32.654Z,3.90
2022-12-01T19:22:59.817Z,3.90
2022-12-01T19:25:26.493Z,3.90
2022-12-01T19:27:53.407Z,4.00
2022-12-01T19:30:20.193Z,4.00
2022-12-01T19:32:46.832Z,4.00
2022-12-01T19:35:13.689Z,4.10
2022-12-01T19:37:40.441Z,4.10
2022-12-01T19:40:07.939Z,4.10
2022-12-01T19:42:34.746Z,4.20
2022-12-01T19:45:01.346Z,4.20
2022-12-01T19:47:32.241Z,4.20
2022-12-01T19:49:59.047Z,4.30
2022-12-01T19:52:25.963Z,4.30
2022-12-01T19:54:53.166Z,4.30
2022-12-01T19:57:19.995Z,4.30
2022-12-01T19:59:46.825Z,4.30
2022-12-01T20:02:13.624Z,4.30
2022-12-01T20:04:40.851Z,4.40
2022-12-01T20:07:07.711Z,4.40
2022-12-01T20:09:34.464Z,4.40
2022-12-01T20:12:01.241Z,4.40
2022-12-01T20:14:28.096Z,4.50
2022-12-01T20:16:55.792Z,4.40
2022-12-01T20:19:22.582Z,4.50
2022-12-01T20:21:50.061Z,4.50
2022-12-01T20:24:19.889Z,4.50
2022-12-01T20:26:50.698Z,4.50
2022-12-01T20:29:24.186Z,4.50
2022-12-01T20:31:52.822Z,4.50
2022-12-01T20:34:23.369Z,4.50
2022-12-01T20:36:50.136Z,4.50
2022-12-01T20:39:17.017Z,4.60
2022-12-01T20:41:44.413Z,4.50
2022-12-01T20:44:13.743Z,4.50
2022-12-01T20:46:45.368Z,4.60
2022-12-01T20:49:13.333Z,4.60
2022-12-01T20:51:40.589Z,4.60
2022-12-01T20:56:56.272Z,4.60
2022-12-01T20:59:23.125Z,4.60
2022-12-01T21:01:50.004Z,4.60
2022-12-01T21:04:17.329Z,4.60
2022-12-01T21:06:44.443Z,4.70
2022-12-01T21:09:12.432Z,4.70
2022-12-01T21:12:08.894Z,4.70
2022-12-01T21:14:58.595Z,4.70
2022-12-01T21:17:37.363Z,4.70
2022-12-01T21:20:21.914Z,4.70
2022-12-01T21:22:50.127Z,4.70
2022-12-01T21:25:24.275Z,4.70
2022-12-01T21:27:51.381Z,4.70
2022-12-01T21:30:29.400Z,4.70
2022-12-01T21:33:11.934Z,4.70
2022-12-01T21:35:38.721Z,4.70
2022-12-01T21:38:12.832Z,4.70
2022-12-01T21:40:46.642Z,4.70
2022-12-01T21:43:24.576Z,4.70
2022-12-01T21:46:15.501Z,4.70
2022-12-01T21:48:43.372Z,4.70
2022-12-01T21:51:23.665Z,4.70
2022-12-01T21:53:56.140Z,4.70
2022-12-01T21:56:26.607Z,4.70
2022-12-01T21:58:56.917Z,4.70
2022-12-01T22:01:27.872Z,4.70
2022-12-01T22:04:02.490Z,4.70
2022-12-01T22:06:38.019Z,4.70
2022-12-01T22:09:16.562Z,4.70
2022-12-01T22:11:47.216Z,4.70
2022-12-01T22:14:23.648Z,4.70
2022-12-01T22:16:55.889Z,4.70
2022-12-01T22:19:27.675Z,4.80
2022-12-01T22:22:09.412Z,4.70
2022-12-01T22:24:42.335Z,4.70
2022-12-01T22:27:11.869Z,4.70
2022-12-01T22:29:49.034Z,4.70
